sensor_id;sensor_type;location;lat;lon;timestamp;pressure;altitude;pressure_sealevel;temperature;humidity
16030;BME280;34770;49.272;11.070;2023-02-02T00:01:16;64408.81;;;-148.56;100.00
16030;BME280;34770;49.272;11.070;2023-02-02T00:03:41;64408.81;;;-148.56;100.00
16030;BME280;34770;49.272;11.070;2023-02-02T00:06:07;64408.81;;;-148.56;100.00
16030;BME280;34770;49.272;11.070;2023-02-02T00:08:33;64408.81;;;-148.56;100.00
16030;BME280;34770;49.272;11.070;2023-02-02T00:11:00;64408.81;;;-148.56;100.00
16030;BME280;34770;49.272;11.070;2023-02-02T00:13:25;64408.81;;;-148.56;100.00
16030;BME280;34770;49.272;11.070;2023-02-02T00:15:52;64408.81;;;-148.56;100.00
16030;BME280;34770;49.272;11.070;2023-02-02T00:18:17;64408.81;;;-148.56;100.00
16030;BME280;34770;49.272;11.070;2023-02-02T00:20:43;64408.81;;;-148.56;100.00
16030;BME280;34770;49.272;11.070;2023-02-02T00:23:09;64408.81;;;-148.56;100.00
16030;BME280;34770;49.272;11.070;2023-02-02T00:25:34;64408.81;;;-148.56;100.00
16030;BME280;34770;49.272;11.070;2023-02-02T00:28:00;64408.81;;;-148.56;100.00
16030;BME280;34770;49.272;11.070;2023-02-02T00:30:25;64408.81;;;-148.56;100.00
16030;BME280;34770;49.272;11.070;2023-02-02T00:32:51;64408.81;;;-148.56;100.00
16030;BME280;34770;49.272;11.070;2023-02-02T00:35:17;64408.81;;;-148.56;100.00
16030;BME280;34770;49.272;11.070;2023-02-02T00:37:43;64408.81;;;-148.56;100.00
16030;BME280;34770;49.272;11.070;2023-02-02T00:40:09;64408.81;;;-148.56;100.00
16030;BME280;34770;49.272;11.070;2023-02-02T00:42:35;64408.81;;;-148.56;100.00
16030;BME280;34770;49.272;11.070;2023-02-02T00:45:01;64408.81;;;-148.56;100.00
16030;BME280;34770;49.272;11.070;2023-02-02T00:47:48;64408.81;;;-148.56;100.00
16030;BME280;34770;49.272;11.070;2023-02-02T00:50:18;64408.81;;;-148.56;100.00
16030;BME280;34770;49.272;11.070;2023-02-02T00:52:45;64408.81;;;-148.56;100.00
16030;BME280;34770;49.272;11.070;2023-02-02T00:55:11;64408.81;;;-148.56;100.00
16030;BME280;34770;49.272;11.070;2023-02-02T00:57:37;64408.81;;;-148.56;100.00
16030;BME280;34770;49.272;11.070;2023-02-02T01:00:05;64408.81;;;-148.56;100.00
16030;BME280;34770;49.272;11.070;2023-02-02T01:02:32;64408.81;;;-148.56;100.00
16030;BME280;34770;49.272;11.070;2023-02-02T01:04:57;64408.81;;;-148.56;100.00
16030;BME280;34770;49.272;11.070;2023-02-02T01:07:23;64408.81;;;-148.56;100.00
16030;BME280;34770;49.272;11.070;2023-02-02T01:09:48;64408.81;;;-148.56;100.00
16030;BME280;34770;49.272;11.070;2023-02-02T01:12:14;64408.81;;;-148.56;100.00
16030;BME280;34770;49.272;11.070;2023-02-02T01:14:39;64408.81;;;-148.56;100.00
16030;BME280;34770;49.272;11.070;2023-02-02T01:17:05;64408.81;;;-148.56;100.00
16030;BME280;34770;49.272;11.070;2023-02-02T01:19:30;64408.81;;;-148.56;100.00
16030;BME280;34770;49.272;11.070;2023-02-02T01:21:56;64408.81;;;-148.56;100.00
16030;BME280;34770;49.272;11.070;2023-02-02T01:24:21;64408.81;;;-148.56;100.00
16030;BME280;34770;49.272;11.070;2023-02-02T01:26:46;64408.81;;;-148.56;100.00
16030;BME280;34770;49.272;11.070;2023-02-02T01:29:12;64408.81;;;-148.56;100.00
16030;BME280;34770;49.272;11.070;2023-02-02T01:31:37;64408.81;;;-148.56;100.00
16030;BME280;34770;49.272;11.070;2023-02-02T01:34:03;64408.81;;;-148.56;100.00
16030;BME280;34770;49.272;11.070;2023-02-02T01:36:28;64408.81;;;-148.56;100.00
16030;BME280;34770;49.272;11.070;2023-02-02T01:38:53;64408.81;;;-148.56;100.00
16030;BME280;34770;49.272;11.070;2023-02-02T01:41:21;64408.81;;;-148.56;100.00
16030;BME280;34770;49.272;11.070;2023-02-02T01:43:51;64408.81;;;-148.56;100.00
16030;BME280;34770;49.272;11.070;2023-02-02T01:46:30;64408.81;;;-148.56;100.00
16030;BME280;34770;49.272;11.070;2023-02-02T01:49:13;64408.81;;;-148.56;100.00
16030;BME280;34770;49.272;11.070;2023-02-02T01:54:07;64408.81;;;-148.56;100.00
16030;BME280;34770;49.272;11.070;2023-02-02T01:56:38;64408.81;;;-148.56;100.00
16030;BME280;34770;49.272;11.070;2023-02-02T01:59:05;64408.81;;;-148.56;100.00
16030;BME280;34770;49.272;11.070;2023-02-02T02:01:31;64408.81;;;-148.56;100.00
16030;BME280;34770;49.272;11.070;2023-02-02T02:03:56;64408.81;;;-148.56;100.00
16030;BME280;34770;49.272;11.070;2023-02-02T02:06:22;64408.81;;;-148.56;100.00
16030;BME280;34770;49.272;11.070;2023-02-02T02:08:54;64408.81;;;-148.56;100.00
16030;BME280;34770;49.272;11.070;2023-02-02T02:11:21;64408.81;;;-148.56;100.00
16030;BME280;34770;49.272;11.070;2023-02-02T02:13:48;64408.81;;;-148.56;100.00
16030;BME280;34770;49.272;11.070;2023-02-02T02:19:57;64408.81;;;-148.56;100.00
16030;BME280;34770;49.272;11.070;2023-02-02T02:34:15;64408.81;;;-148.56;100.00
16030;BME280;34770;49.272;11.070;2023-02-02T02:37:15;64408.81;;;-148.56;100.00
16030;BME280;34770;49.272;11.070;2023-02-02T02:39:47;64408.81;;;-148.56;100.00
16030;BME280;34770;49.272;11.070;2023-02-02T02:42:17;64408.81;;;-148.56;100.00
16030;BME280;34770;49.272;11.070;2023-02-02T02:44:47;64408.81;;;-148.56;100.00
16030;BME280;34770;49.272;11.070;2023-02-02T02:47:13;64408.81;;;-148.56;100.00
16030;BME280;34770;49.272;11.070;2023-02-02T02:49:42;64408.81;;;-148.56;100.00
16030;BME280;34770;49.272;11.070;2023-02-02T02:52:08;64408.81;;;-148.56;100.00
16030;BME280;34770;49.272;11.070;2023-02-02T02:54:37;64408.81;;;-148.56;100.00
16030;BME280;34770;49.272;11.070;2023-02-02T03:08:06;64408.81;;;-148.56;100.00
16030;BME280;34770;49.272;11.070;2023-02-02T03:10:35;64408.81;;;-148.56;100.00
16030;BME280;34770;49.272;11.070;2023-02-02T03:13:07;64408.81;;;-148.56;100.00
16030;BME280;34770;49.272;11.070;2023-02-02T03:15:32;64408.81;;;-148.56;100.00
16030;BME280;34770;49.272;11.070;2023-02-02T03:17:58;64408.81;;;-148.56;100.00
16030;BME280;34770;49.272;11.070;2023-02-02T03:20:24;64408.81;;;-148.56;100.00
16030;BME280;34770;49.272;11.070;2023-02-02T03:22:49;64408.81;;;-148.56;100.00
16030;BME280;34770;49.272;11.070;2023-02-02T03:25:15;64408.81;;;-148.56;100.00
16030;BME280;34770;49.272;11.070;2023-02-02T03:27:41;64408.81;;;-148.56;100.00
16030;BME280;34770;49.272;11.070;2023-02-02T03:30:08;64408.81;;;-148.56;100.00
16030;BME280;34770;49.272;11.070;2023-02-02T03:32:35;64408.81;;;-148.56;100.00
16030;BME280;34770;49.272;11.070;2023-02-02T03:35:01;64408.81;;;-148.56;100.00
16030;BME280;34770;49.272;11.070;2023-02-02T03:37:26;97940.06;;;4.15;100.00
16030;BME280;34770;49.272;11.070;2023-02-02T03:39:52;98040.28;;;1.91;100.00
16030;BME280;34770;49.272;11.070;2023-02-02T03:42:17;98065.13;;;1.81;100.00
16030;BME280;34770;49.272;11.070;2023-02-02T03:44:42;98059.88;;;1.85;100.00
16030;BME280;34770;49.272;11.070;2023-02-02T03:47:08;98062.19;;;1.48;100.00
16030;BME280;34770;49.272;11.070;2023-02-02T03:49:33;98087.28;;;1.31;100.00
16030;BME280;34770;49.272;11.070;2023-02-02T03:51:59;98061.88;;;1.15;100.00
16030;BME280;34770;49.272;11.070;2023-02-02T03:54:27;98050.25;;;0.99;100.00
16030;BME280;34770;49.272;11.070;2023-02-02T03:56:52;98046.50;;;0.90;100.00
16030;BME280;34770;49.272;11.070;2023-02-02T03:59:17;98060.59;;;1.07;100.00
16030;BME280;34770;49.272;11.070;2023-02-02T04:01:43;98063.63;;;1.06;100.00
16030;BME280;34770;49.272;11.070;2023-02-02T04:04:08;98068.81;;;1.07;100.00
16030;BME280;34770;49.272;11.070;2023-02-02T04:06:34;98052.41;;;1.02;100.00
16030;BME280;34770;49.272;11.070;2023-02-02T04:08:59;98070.41;;;1.14;100.00
16030;BME280;34770;49.272;11.070;2023-02-02T04:11:25;98051.72;;;0.86;100.00
16030;BME280;34770;49.272;11.070;2023-02-02T04:13:50;98036.13;;;0.82;100.00
16030;BME280;34770;49.272;11.070;2023-02-02T04:16:18;98068.81;;;1.07;100.00
16030;BME280;34770;49.272;11.070;2023-02-02T04:18:43;98043.13;;;0.98;100.00
16030;BME280;34770;49.272;11.070;2023-02-02T04:21:09;98027.56;;;0.88;100.00
16030;BME280;34770;49.272;11.070;2023-02-02T04:23:35;98051.16;;;1.19;100.00
16030;BME280;34770;49.272;11.070;2023-02-02T04:26:00;98043.97;;;1.28;100.00
16030;BME280;34770;49.272;11.070;2023-02-02T04:28:26;98029.97;;;1.30;100.00
16030;BME280;34770;49.272;11.070;2023-02-02T04:30:53;98039.75;;;1.41;100.00
16030;BME280;34770;49.272;11.070;2023-02-02T04:33:20;98037.50;;;1.43;100.00
16030;BME280;34770;49.272;11.070;2023-02-02T04:35:46;98032.75;;;1.54;100.00
16030;BME280;34770;49.272;11.070;2023-02-02T04:38:14;98019.94;;;1.44;100.00
16030;BME280;34770;49.272;11.070;2023-02-02T04:40:41;98015.88;;;1.41;100.00
16030;BME280;34770;49.272;11.070;2023-02-02T04:43:07;98001.00;;;1.48;100.00
16030;BME280;34770;49.272;11.070;2023-02-02T04:45:33;97998.66;;;1.60;100.00
16030;BME280;34770;49.272;11.070;2023-02-02T04:47:59;98006.31;;;1.87;100.00
16030;BME280;34770;49.272;11.070;2023-02-02T04:50:24;97998.25;;;1.96;100.00
16030;BME280;34770;49.272;11.070;2023-02-02T04:52:50;98007.41;;;2.11;100.00
16030;BME280;34770;49.272;11.070;2023-02-02T04:55:15;98002.50;;;2.27;100.00
16030;BME280;34770;49.272;11.070;2023-02-02T04:57:44;98015.91;;;2.33;100.00
16030;BME280;34770;49.272;11.070;2023-02-02T05:00:10;97998.75;;;2.42;100.00
16030;BME280;34770;49.272;11.070;2023-02-02T05:02:37;98008.38;;;2.77;100.00
16030;BME280;34770;49.272;11.070;2023-02-02T05:05:04;98013.31;;;2.80;100.00
16030;BME280;34770;49.272;11.070;2023-02-02T05:07:30;98007.50;;;2.82;100.00
16030;BME280;34770;49.272;11.070;2023-02-02T05:26:50;97925.06;;;2.63;100.00
16030;BME280;34770;49.272;11.070;2023-02-02T05:33:28;98002.34;;;3.27;100.00
16030;BME280;34770;49.272;11.070;2023-02-02T05:36:56;98011.94;;;3.30;100.00
16030;BME280;34770;49.272;11.070;2023-02-02T05:43:41;97933.28;;;2.82;100.00
16030;BME280;34770;49.272;11.070;2023-02-02T05:46:16;97945.00;;;2.87;100.00
16030;BME280;34770;49.272;11.070;2023-02-02T05:49:57;97927.34;;;2.75;100.00
16030;BME280;34770;49.272;11.070;2023-02-02T05:53:06;98020.91;;;3.35;100.00
16030;BME280;34770;49.272;11.070;2023-02-02T05:56:03;97896.34;;;2.55;100.00
16030;BME280;34770;49.272;11.070;2023-02-02T06:05:19;98021.53;;;3.46;100.00
16030;BME280;34770;49.272;11.070;2023-02-02T06:08:52;97935.59;;;2.75;100.00
16030;BME280;34770;49.272;11.070;2023-02-02T06:11:58;98033.66;;;3.45;100.00
16030;BME280;34770;49.272;11.070;2023-02-02T06:14:44;98042.53;;;3.42;100.00
16030;BME280;34770;49.272;11.070;2023-02-02T06:21:05;98059.53;;;3.44;100.00
16030;BME280;34770;49.272;11.070;2023-02-02T06:27:09;98083.22;;;2.74;100.00
16030;BME280;34770;49.272;11.070;2023-02-02T06:30:32;98083.16;;;2.36;100.00
16030;BME280;34770;49.272;11.070;2023-02-02T06:37:24;98092.88;;;2.04;100.00
16030;BME280;34770;49.272;11.070;2023-02-02T06:39:50;97993.03;;;1.22;100.00
16030;BME280;34770;49.272;11.070;2023-02-02T06:49:58;98096.53;;;1.70;100.00
16030;BME280;34770;49.272;11.070;2023-02-02T07:00:10;98002.31;;;0.57;100.00
16030;BME280;34770;49.272;11.070;2023-02-02T07:19:09;98040.25;;;0.34;100.00
16030;BME280;34770;49.272;11.070;2023-02-02T07:22:00;98152.75;;;0.98;100.00
16030;BME280;34770;49.272;11.070;2023-02-02T08:12:22;98149.03;;;1.23;100.00
16030;BME280;34770;49.272;11.070;2023-02-02T09:02:12;98137.13;;;3.79;100.00
16030;BME280;34770;49.272;11.070;2023-02-02T09:04:38;98106.44;;;3.86;100.00
16030;BME280;34770;49.272;11.070;2023-02-02T09:07:47;98122.97;;;3.86;100.00
16030;BME280;34770;49.272;11.070;2023-02-02T10:24:06;98166.72;;;4.49;100.00
16030;BME280;34770;49.272;11.070;2023-02-02T10:26:41;98067.38;;;3.70;100.00
16030;BME280;34770;49.272;11.070;2023-02-02T10:29:42;98137.31;;;4.30;100.00
16030;BME280;34770;49.272;11.070;2023-02-02T10:38:04;98161.31;;;4.57;100.00
16030;BME280;34770;49.272;11.070;2023-02-02T10:43:15;98155.78;;;4.57;100.00
16030;BME280;34770;49.272;11.070;2023-02-02T10:46:10;98150.47;;;4.47;100.00
16030;BME280;34770;49.272;11.070;2023-02-02T10:48:37;98161.81;;;4.59;100.00
16030;BME280;34770;49.272;11.070;2023-02-02T10:51:11;98164.69;;;4.68;100.00
16030;BME280;34770;49.272;11.070;2023-02-02T10:53:42;98145.47;;;4.63;100.00
16030;BME280;34770;49.272;11.070;2023-02-02T10:56:18;98154.25;;;4.79;100.00
16030;BME280;34770;49.272;11.070;2023-02-02T10:58:53;98165.50;;;4.83;100.00
16030;BME280;34770;49.272;11.070;2023-02-02T11:01:22;98130.28;;;4.66;100.00
16030;BME280;34770;49.272;11.070;2023-02-02T11:03:48;98153.84;;;4.72;100.00
16030;BME280;34770;49.272;11.070;2023-02-02T11:06:39;98124.25;;;4.63;100.00
16030;BME280;34770;49.272;11.070;2023-02-02T11:09:16;98147.22;;;4.73;100.00
16030;BME280;34770;49.272;11.070;2023-02-02T11:11:53;83170.78;;;4.78;100.00
16030;BME280;34770;49.272;11.070;2023-02-02T11:14:29;98116.56;;;4.60;100.00
16030;BME280;34770;49.272;11.070;2023-02-02T11:17:05;98163.34;;;4.79;100.00
16030;BME280;34770;49.272;11.070;2023-02-02T11:19:33;98155.25;;;4.83;100.00
16030;BME280;34770;49.272;11.070;2023-02-02T11:22:03;98144.22;;;4.83;100.00
16030;BME280;34770;49.272;11.070;2023-02-02T11:24:34;98167.63;;;4.86;100.00
16030;BME280;34770;49.272;11.070;2023-02-02T11:27:11;98171.41;;;4.90;100.00
16030;BME280;34770;49.272;11.070;2023-02-02T11:30:49;98151.59;;;4.74;100.00
16030;BME280;34770;49.272;11.070;2023-02-02T11:32:55;98181.50;;;4.94;100.00
16030;BME280;34770;49.272;11.070;2023-02-02T11:35:23;98166.09;;;4.93;100.00
16030;BME280;34770;49.272;11.070;2023-02-02T11:37:58;98180.38;;;4.95;100.00
16030;BME280;34770;49.272;11.070;2023-02-02T11:40:36;98176.09;;;5.03;100.00
16030;BME280;34770;49.272;11.070;2023-02-02T11:43:06;98176.38;;;5.02;100.00
16030;BME280;34770;49.272;11.070;2023-02-02T11:45:41;98170.31;;;5.14;100.00
16030;BME280;34770;49.272;11.070;2023-02-02T11:48:15;98158.69;;;5.03;100.00
16030;BME280;34770;49.272;11.070;2023-02-02T11:50:49;98159.53;;;5.03;100.00
16030;BME280;34770;49.272;11.070;2023-02-02T11:53:25;98177.34;;;5.20;100.00
16030;BME280;34770;49.272;11.070;2023-02-02T11:55:52;98156.41;;;5.19;100.00
16030;BME280;34770;49.272;11.070;2023-02-02T11:58:27;98148.31;;;5.22;100.00
16030;BME280;34770;49.272;11.070;2023-02-02T12:01:02;98163.28;;;5.21;100.00
16030;BME280;34770;49.272;11.070;2023-02-02T12:03:37;98152.53;;;5.20;100.00
16030;BME280;34770;49.272;11.070;2023-02-02T12:09:00;98152.09;;;5.26;100.00
16030;BME280;34770;49.272;11.070;2023-02-02T12:14:28;98166.72;;;5.27;100.00
16030;BME280;34770;49.272;11.070;2023-02-02T12:28:15;98169.28;;;5.23;100.00
16030;BME280;34770;49.272;11.070;2023-02-02T12:36:35;98165.91;;;5.26;100.00
16030;BME280;34770;49.272;11.070;2023-02-02T12:39:22;98175.81;;;5.27;100.00
16030;BME280;34770;49.272;11.070;2023-02-02T13:02:01;98196.34;;;5.35;100.00
16030;BME280;34770;49.272;11.070;2023-02-02T13:07:19;98193.56;;;5.35;100.00
16030;BME280;34770;49.272;11.070;2023-02-02T13:10:10;98198.78;;;5.37;100.00
16030;BME280;34770;49.272;11.070;2023-02-02T13:12:49;98204.81;;;5.39;100.00
16030;BME280;34770;49.272;11.070;2023-02-02T13:15:19;98200.22;;;5.34;100.00
16030;BME280;34770;49.272;11.070;2023-02-02T13:17:58;98207.06;;;5.37;100.00
16030;BME280;34770;49.272;11.070;2023-02-02T13:20:45;98206.78;;;5.38;100.00
16030;BME280;34770;49.272;11.070;2023-02-02T13:23:33;98185.41;;;5.30;100.00
16030;BME280;34770;49.272;11.070;2023-02-02T13:26:05;98184.19;;;5.22;100.00
16030;BME280;34770;49.272;11.070;2023-02-02T13:31:03;98190.03;;;5.21;100.00
16030;BME280;34770;49.272;11.070;2023-02-02T13:33:34;98200.28;;;5.20;100.00
16030;BME280;34770;49.272;11.070;2023-02-02T13:36:15;98206.06;;;5.19;100.00
16030;BME280;34770;49.272;11.070;2023-02-02T13:38:43;98198.13;;;5.17;100.00
16030;BME280;34770;49.272;11.070;2023-02-02T13:41:11;98214.25;;;5.24;100.00
16030;BME280;34770;49.272;11.070;2023-02-02T13:44:07;98218.47;;;5.21;100.00
16030;BME280;34770;49.272;11.070;2023-02-02T13:47:15;98217.56;;;5.12;100.00
16030;BME280;34770;49.272;11.070;2023-02-02T13:49:47;98222.03;;;5.08;100.00
16030;BME280;34770;49.272;11.070;2023-02-02T13:52:44;98225.31;;;5.10;100.00
16030;BME280;34770;49.272;11.070;2023-02-02T13:55:32;98222.03;;;5.08;100.00
16030;BME280;34770;49.272;11.070;2023-02-02T13:58:09;98224.50;;;5.09;100.00
16030;BME280;34770;49.272;11.070;2023-02-02T14:00:50;98247.59;;;5.14;100.00
16030;BME280;34770;49.272;11.070;2023-02-02T14:03:41;98209.19;;;5.03;100.00
16030;BME280;34770;49.272;11.070;2023-02-02T14:06:15;98241.75;;;5.15;100.00
16030;BME280;34770;49.272;11.070;2023-02-02T14:08:51;98260.66;;;5.22;100.00
16030;BME280;34770;49.272;11.070;2023-02-02T14:11:38;98255.94;;;5.22;100.00
16030;BME280;34770;49.272;11.070;2023-02-02T14:14:12;98246.16;;;5.16;100.00
16030;BME280;34770;49.272;11.070;2023-02-02T14:18:06;98259.47;;;5.14;100.00
16030;BME280;34770;49.272;11.070;2023-02-02T14:20:40;98260.25;;;5.15;100.00
16030;BME280;34770;49.272;11.070;2023-02-02T14:26:09;98246.50;;;5.01;100.00
16030;BME280;34770;49.272;11.070;2023-02-02T14:28:40;98269.97;;;5.12;100.00
16030;BME280;34770;49.272;11.070;2023-02-02T14:31:29;98252.31;;;5.13;100.00
16030;BME280;34770;49.272;11.070;2023-02-02T14:34:23;98258.22;;;5.20;100.00
16030;BME280;34770;49.272;11.070;2023-02-02T14:36:57;98256.88;;;5.32;100.00
16030;BME280;34770;49.272;11.070;2023-02-02T14:39:30;98251.16;;;5.28;100.00
16030;BME280;34770;49.272;11.070;2023-02-02T14:42:15;98258.09;;;5.25;100.00
16030;BME280;34770;49.272;11.070;2023-02-02T14:45:15;98279.47;;;5.34;100.00
16030;BME280;34770;49.272;11.070;2023-02-02T14:47:49;98262.22;;;5.14;100.00
16030;BME280;34770;49.272;11.070;2023-02-02T14:50:31;98278.66;;;5.19;100.00
16030;BME280;34770;49.272;11.070;2023-02-02T14:55:59;98266.41;;;4.98;100.00
16030;BME280;34770;49.272;11.070;2023-02-02T14:58:44;98284.09;;;5.10;100.00
16030;BME280;34770;49.272;11.070;2023-02-02T15:06:38;98298.69;;;5.11;100.00
16030;BME280;34770;49.272;11.070;2023-02-02T15:17:25;98313.50;;;5.15;100.00
16030;BME280;34770;49.272;11.070;2023-02-02T15:28:12;98315.03;;;5.07;100.00
16030;BME280;34770;49.272;11.070;2023-02-02T15:30:43;98314.25;;;5.07;100.00
16030;BME280;34770;49.272;11.070;2023-02-02T15:33:25;98317.50;;;4.95;100.00
16030;BME280;34770;49.272;11.070;2023-02-02T15:35:53;98332.41;;;4.94;100.00
16030;BME280;34770;49.272;11.070;2023-02-02T15:38:23;98337.41;;;4.92;100.00
16030;BME280;34770;49.272;11.070;2023-02-02T15:40:54;98314.63;;;4.86;100.00
16030;BME280;34770;49.272;11.070;2023-02-02T15:43:21;98343.81;;;4.87;100.00
16030;BME280;34770;49.272;11.070;2023-02-02T15:45:54;98375.22;;;4.91;100.00
16030;BME280;34770;49.272;11.070;2023-02-02T15:48:30;98369.19;;;4.89;100.00
16030;BME280;34770;49.272;11.070;2023-02-02T15:51:13;98363.84;;;4.79;100.00
16030;BME280;34770;49.272;11.070;2023-02-02T15:58:51;98384.66;;;4.71;100.00
16030;BME280;34770;49.272;11.070;2023-02-02T16:01:22;98399.94;;;4.83;100.00
16030;BME280;34770;49.272;11.070;2023-02-02T16:06:23;98401.41;;;4.75;100.00
16030;BME280;34770;49.272;11.070;2023-02-02T16:08:49;98401.59;;;4.65;100.00
16030;BME280;34770;49.272;11.070;2023-02-02T16:11:17;98423.50;;;4.75;100.00
16030;BME280;34770;49.272;11.070;2023-02-02T16:16:28;98426.13;;;4.66;100.00
16030;BME280;34770;49.272;11.070;2023-02-02T16:19:21;98443.69;;;4.70;100.00
16030;BME280;34770;49.272;11.070;2023-02-02T16:21:53;98442.34;;;4.68;100.00
16030;BME280;34770;49.272;11.070;2023-02-02T16:24:26;98442.66;;;4.66;100.00
16030;BME280;34770;49.272;11.070;2023-02-02T16:26:54;98442.13;;;4.64;100.00
16030;BME280;34770;49.272;11.070;2023-02-02T16:29:22;98438.34;;;4.60;100.00
16030;BME280;34770;49.272;11.070;2023-02-02T16:31:48;98443.03;;;4.59;100.00
16030;BME280;34770;49.272;11.070;2023-02-02T16:39:50;98442.66;;;4.47;100.00
16030;BME280;34770;49.272;11.070;2023-02-02T16:42:29;98465.91;;;4.60;100.00
16030;BME280;34770;49.272;11.070;2023-02-02T16:44:57;98464.50;;;4.62;100.00
16030;BME280;34770;49.272;11.070;2023-02-02T16:52:34;98474.72;;;4.62;100.00
16030;BME280;34770;49.272;11.070;2023-02-02T16:55:15;98480.50;;;4.60;100.00
16030;BME280;34770;49.272;11.070;2023-02-02T16:57:44;98489.31;;;4.62;100.00
16030;BME280;34770;49.272;11.070;2023-02-02T17:00:22;98478.50;;;4.47;100.00
16030;BME280;34770;49.272;11.070;2023-02-02T17:02:51;98499.00;;;4.60;100.00
16030;BME280;34770;49.272;11.070;2023-02-02T17:05:23;98507.59;;;4.58;100.00
16030;BME280;34770;49.272;11.070;2023-02-02T17:08:00;98504.75;;;4.63;100.00
16030;BME280;34770;49.272;11.070;2023-02-02T17:10:40;98513.59;;;4.60;100.00
16030;BME280;34770;49.272;11.070;2023-02-02T17:15:57;98522.41;;;4.62;100.00
16030;BME280;34770;49.272;11.070;2023-02-02T17:18:22;98512.94;;;4.50;100.00
16030;BME280;34770;49.272;11.070;2023-02-02T17:20:49;98518.16;;;4.51;100.00
16030;BME280;34770;49.272;11.070;2023-02-02T17:23:21;98546.69;;;4.60;100.00
16030;BME280;34770;49.272;11.070;2023-02-02T17:25:46;98530.81;;;4.52;100.00
16030;BME280;34770;49.272;11.070;2023-02-02T17:28:21;98561.00;;;4.62;100.00
16030;BME280;34770;49.272;11.070;2023-02-02T17:30:49;98521.88;;;4.41;100.00
16030;BME280;34770;49.272;11.070;2023-02-02T17:33:17;98560.22;;;4.62;100.00
16030;BME280;34770;49.272;11.070;2023-02-02T17:35:44;98556.59;;;4.61;100.00
16030;BME280;34770;49.272;11.070;2023-02-02T17:38:10;98546.25;;;4.53;100.00
16030;BME280;34770;49.272;11.070;2023-02-02T17:40:37;98556.06;;;4.59;100.00
16030;BME280;34770;49.272;11.070;2023-02-02T17:43:03;98561.00;;;4.62;100.00
16030;BME280;34770;49.272;11.070;2023-02-02T17:45:34;98568.47;;;4.62;100.00
16030;BME280;34770;49.272;11.070;2023-02-02T17:48:00;98570.94;;;4.63;100.00
16030;BME280;34770;49.272;11.070;2023-02-02T17:50:26;98575.16;;;4.56;100.00
16030;BME280;34770;49.272;11.070;2023-02-02T17:52:52;98572.69;;;4.54;100.00
16030;BME280;34770;49.272;11.070;2023-02-02T17:55:23;98568.47;;;4.62;100.00
16030;BME280;34770;49.272;11.070;2023-02-02T17:57:50;98581.44;;;4.61;100.00
16030;BME280;34770;49.272;11.070;2023-02-02T18:00:18;98596.63;;;4.59;100.00
16030;BME280;34770;49.272;11.070;2023-02-02T18:02:46;98584.78;;;4.58;100.00
16030;BME280;34770;49.272;11.070;2023-02-02T18:05:12;98583.72;;;4.54;100.00
16030;BME280;34770;49.272;11.070;2023-02-02T18:07:38;98594.09;;;4.62;100.00
16030;BME280;34770;49.272;11.070;2023-02-02T18:10:05;98602.38;;;4.62;100.00
16030;BME280;34770;49.272;11.070;2023-02-02T18:12:31;98584.91;;;4.48;100.00
16030;BME280;34770;49.272;11.070;2023-02-02T18:15:00;98603.56;;;4.56;100.00
16030;BME280;34770;49.272;11.070;2023-02-02T18:17:26;98608.78;;;4.58;100.00
16030;BME280;34770;49.272;11.070;2023-02-02T18:19:52;98589.25;;;4.54;100.00
16030;BME280;34770;49.272;11.070;2023-02-02T18:22:19;98602.72;;;4.56;100.00
16030;BME280;34770;49.272;11.070;2023-02-02T18:24:44;98598.28;;;4.60;100.00
16030;BME280;34770;49.272;11.070;2023-02-02T18:27:10;98585.28;;;4.60;100.00
16030;BME280;34770;49.272;11.070;2023-02-02T18:29:35;98590.81;;;4.60;100.00
16030;BME280;34770;49.272;11.070;2023-02-02T18:32:01;98593.72;;;4.50;100.00
16030;BME280;34770;49.272;11.070;2023-02-02T18:34:33;98598.63;;;4.53;100.00
16030;BME280;34770;49.272;11.070;2023-02-02T18:36:59;98594.03;;;4.49;100.00
16030;BME280;34770;49.272;11.070;2023-02-02T18:39:25;98596.56;;;4.45;100.00
16030;BME280;34770;49.272;11.070;2023-02-02T18:41:50;98615.78;;;4.50;100.00
16030;BME280;34770;49.272;11.070;2023-02-02T18:44:16;98615.16;;;4.53;100.00
16030;BME280;34770;49.272;11.070;2023-02-02T18:46:41;98608.53;;;4.54;100.00
16030;BME280;34770;49.272;11.070;2023-02-02T18:49:07;98601.69;;;4.52;100.00
16030;BME280;34770;49.272;11.070;2023-02-02T18:51:33;98595.72;;;4.44;100.00
16030;BME280;34770;49.272;11.070;2023-02-02T18:53:58;98581.16;;;4.39;100.00
16030;BME280;34770;49.272;11.070;2023-02-02T18:56:25;98578.19;;;4.35;100.00
16030;BME280;34770;49.272;11.070;2023-02-02T18:58:52;98605.56;;;4.51;100.00
16030;BME280;34770;49.272;11.070;2023-02-02T19:01:18;98604.97;;;4.54;100.00
16030;BME280;34770;49.272;11.070;2023-02-02T19:03:52;98608.00;;;4.52;100.00
16030;BME280;34770;49.272;11.070;2023-02-02T19:06:19;98596.78;;;4.49;100.00
16030;BME280;34770;49.272;11.070;2023-02-02T19:09:04;98592.59;;;4.51;100.00
16030;BME280;34770;49.272;11.070;2023-02-02T19:11:49;98604.22;;;4.48;100.00
16030;BME280;34770;49.272;11.070;2023-02-02T19:14:25;98610.25;;;4.50;100.00
16030;BME280;34770;49.272;11.070;2023-02-02T19:19:29;98616.34;;;4.47;100.00
16030;BME280;34770;49.272;11.070;2023-02-02T19:24:42;98610.09;;;4.41;100.00
16030;BME280;34770;49.272;11.070;2023-02-02T19:27:19;98610.09;;;4.41;100.00
16030;BME280;34770;49.272;11.070;2023-02-02T19:29:47;98614.25;;;4.39;100.00
16030;BME280;34770;49.272;11.070;2023-02-02T19:32:21;98600.06;;;4.26;100.00
16030;BME280;34770;49.272;11.070;2023-02-02T19:34:48;98623.03;;;4.41;100.00
16030;BME280;34770;49.272;11.070;2023-02-02T19:39:48;98623.59;;;4.43;100.00